sensor_id;sensor_type;location;lat;lon;timestamp;P1;durP1;ratioP1;P2;durP2;ratioP2
48534;SDS011;34323;52.022;5.686;2023-05-02T00:00:12;21.67;;;11.55;;
48534;SDS011;34323;52.022;5.686;2023-05-02T00:02:38;18.52;;;11.35;;
48534;SDS011;34323;52.022;5.686;2023-05-02T00:05:05;23.15;;;11.73;;
48534;SDS011;34323;52.022;5.686;2023-05-02T00:07:31;24.85;;;12.52;;
48534;SDS011;34323;52.022;5.686;2023-05-02T00:09:57;22.77;;;12.00;;
48534;SDS011;34323;52.022;5.686;2023-05-02T00:12:24;23.52;;;13.02;;
48534;SDS011;34323;52.022;5.686;2023-05-02T00:14:50;23.38;;;12.23;;
48534;SDS011;34323;52.022;5.686;2023-05-02T00:17:16;23.95;;;12.57;;
48534;SDS011;34323;52.022;5.686;2023-05-02T00:19:42;25.33;;;13.00;;
48534;SDS011;34323;52.022;5.686;2023-05-02T00:22:08;26.05;;;13.48;;
48534;SDS011;34323;52.022;5.686;2023-05-02T00:24:33;28.08;;;14.98;;
48534;SDS011;34323;52.022;5.686;2023-05-02T00:26:59;24.75;;;14.90;;
48534;SDS011;34323;52.022;5.686;2023-05-02T00:29:24;26.35;;;15.88;;
48534;SDS011;34323;52.022;5.686;2023-05-02T00:31:50;31.05;;;15.20;;
48534;SDS011;34323;52.022;5.686;2023-05-02T00:34:16;26.40;;;14.38;;
48534;SDS011;34323;52.022;5.686;2023-05-02T00:36:41;27.02;;;13.70;;
48534;SDS011;34323;52.022;5.686;2023-05-02T00:39:07;24.73;;;14.05;;
48534;SDS011;34323;52.022;5.686;2023-05-02T00:41:32;31.27;;;15.10;;
48534;SDS011;34323;52.022;5.686;2023-05-02T00:43:58;26.23;;;14.05;;
48534;SDS011;34323;52.022;5.686;2023-05-02T00:46:23;32.50;;;14.90;;
48534;SDS011;34323;52.022;5.686;2023-05-02T00:48:49;25.90;;;14.43;;
48534;SDS011;34323;52.022;5.686;2023-05-02T00:51:15;25.98;;;13.77;;
48534;SDS011;34323;52.022;5.686;2023-05-02T00:53:40;30.98;;;15.07;;
48534;SDS011;34323;52.022;5.686;2023-05-02T00:56:07;27.52;;;14.35;;
48534;SDS011;34323;52.022;5.686;2023-05-02T00:58:33;28.92;;;14.13;;
48534;SDS011;34323;52.022;5.686;2023-05-02T01:01:07;30.83;;;14.07;;
48534;SDS011;34323;52.022;5.686;2023-05-02T01:14:15;26.90;;;13.55;;
48534;SDS011;34323;52.022;5.686;2023-05-02T01:16:42;23.48;;;13.55;;
48534;SDS011;34323;52.022;5.686;2023-05-02T01:19:24;22.98;;;13.07;;
48534;SDS011;34323;52.022;5.686;2023-05-02T01:21:53;25.60;;;13.05;;
48534;SDS011;34323;52.022;5.686;2023-05-02T01:24:24;25.00;;;11.73;;
48534;SDS011;34323;52.022;5.686;2023-05-02T01:29:37;27.85;;;11.93;;
48534;SDS011;34323;52.022;5.686;2023-05-02T01:32:04;22.15;;;12.00;;
48534;SDS011;34323;52.022;5.686;2023-05-02T01:34:32;24.75;;;11.55;;
48534;SDS011;34323;52.022;5.686;2023-05-02T01:37:00;24.40;;;10.40;;
48534;SDS011;34323;52.022;5.686;2023-05-02T01:39:27;22.08;;;10.70;;
48534;SDS011;34323;52.022;5.686;2023-05-02T01:41:55;21.20;;;8.57;;
48534;SDS011;34323;52.022;5.686;2023-05-02T01:44:23;15.63;;;7.57;;
48534;SDS011;34323;52.022;5.686;2023-05-02T01:46:50;15.20;;;8.10;;
48534;SDS011;34323;52.022;5.686;2023-05-02T01:49:18;16.30;;;7.57;;
48534;SDS011;34323;52.022;5.686;2023-05-02T01:51:47;13.25;;;6.32;;
48534;SDS011;34323;52.022;5.686;2023-05-02T01:54:14;10.82;;;6.15;;
48534;SDS011;34323;52.022;5.686;2023-05-02T01:56:41;16.65;;;6.32;;
48534;SDS011;34323;52.022;5.686;2023-05-02T01:59:09;11.38;;;6.00;;
48534;SDS011;34323;52.022;5.686;2023-05-02T02:01:37;10.25;;;5.45;;
48534;SDS011;34323;52.022;5.686;2023-05-02T02:04:04;12.80;;;6.38;;
48534;SDS011;34323;52.022;5.686;2023-05-02T02:06:32;12.15;;;5.28;;
48534;SDS011;34323;52.022;5.686;2023-05-02T02:08:58;14.85;;;5.10;;
48534;SDS011;34323;52.022;5.686;2023-05-02T02:11:25;11.30;;;4.82;;
48534;SDS011;34323;52.022;5.686;2023-05-02T02:14:13;13.05;;;4.60;;
48534;SDS011;34323;52.022;5.686;2023-05-02T02:16:44;14.00;;;4.53;;
48534;SDS011;34323;52.022;5.686;2023-05-02T02:19:11;11.10;;;4.50;;
48534;SDS011;34323;52.022;5.686;2023-05-02T02:21:39;13.43;;;4.47;;
48534;SDS011;34323;52.022;5.686;2023-05-02T02:24:07;10.02;;;3.67;;
48534;SDS011;34323;52.022;5.686;2023-05-02T02:26:34;8.82;;;3.47;;
48534;SDS011;34323;52.022;5.686;2023-05-02T02:29:00;11.30;;;3.30;;
48534;SDS011;34323;52.022;5.686;2023-05-02T02:31:31;15.18;;;3.65;;
48534;SDS011;34323;52.022;5.686;2023-05-02T02:34:00;9.68;;;3.67;;
48534;SDS011;34323;52.022;5.686;2023-05-02T02:36:31;14.80;;;3.53;;
48534;SDS011;34323;52.022;5.686;2023-05-02T02:39:20;4.68;;;2.50;;
48534;SDS011;34323;52.022;5.686;2023-05-02T02:42:00;6.65;;;2.33;;
48534;SDS011;34323;52.022;5.686;2023-05-02T02:44:55;6.85;;;2.30;;
48534;SDS011;34323;52.022;5.686;2023-05-02T02:50:26;10.73;;;2.17;;
48534;SDS011;34323;52.022;5.686;2023-05-02T02:53:03;9.05;;;2.42;;
48534;SDS011;34323;52.022;5.686;2023-05-02T02:58:29;9.98;;;2.03;;
48534;SDS011;34323;52.022;5.686;2023-05-02T03:01:20;5.80;;;1.85;;
48534;SDS011;34323;52.022;5.686;2023-05-02T03:03:47;8.35;;;1.98;;
48534;SDS011;34323;52.022;5.686;2023-05-02T03:06:16;8.43;;;2.20;;
48534;SDS011;34323;52.022;5.686;2023-05-02T03:08:42;9.45;;;2.30;;
48534;SDS011;34323;52.022;5.686;2023-05-02T03:11:08;8.05;;;2.15;;
48534;SDS011;34323;52.022;5.686;2023-05-02T03:13:34;7.18;;;2.10;;
48534;SDS011;34323;52.022;5.686;2023-05-02T03:18:47;9.48;;;2.10;;
48534;SDS011;34323;52.022;5.686;2023-05-02T03:21:13;5.18;;;1.70;;
48534;SDS011;34323;52.022;5.686;2023-05-02T03:23:38;10.80;;;1.77;;
48534;SDS011;34323;52.022;5.686;2023-05-02T03:26:04;4.47;;;2.10;;
48534;SDS011;34323;52.022;5.686;2023-05-02T03:28:30;10.45;;;1.80;;
48534;SDS011;34323;52.022;5.686;2023-05-02T03:30:55;6.30;;;1.73;;
48534;SDS011;34323;52.022;5.686;2023-05-02T03:33:21;7.43;;;2.47;;
48534;SDS011;34323;52.022;5.686;2023-05-02T03:35:47;5.95;;;2.10;;
48534;SDS011;34323;52.022;5.686;2023-05-02T03:38:13;7.82;;;1.55;;
48534;SDS011;34323;52.022;5.686;2023-05-02T03:40:38;7.20;;;1.40;;
48534;SDS011;34323;52.022;5.686;2023-05-02T03:43:04;8.32;;;1.63;;
48534;SDS011;34323;52.022;5.686;2023-05-02T03:45:29;15.07;;;2.25;;
48534;SDS011;34323;52.022;5.686;2023-05-02T03:47:55;9.70;;;2.08;;
48534;SDS011;34323;52.022;5.686;2023-05-02T03:50:21;7.57;;;1.92;;
48534;SDS011;34323;52.022;5.686;2023-05-02T03:52:47;6.30;;;2.55;;
48534;SDS011;34323;52.022;5.686;2023-05-02T03:55:12;5.55;;;2.15;;
48534;SDS011;34323;52.022;5.686;2023-05-02T03:57:38;5.30;;;1.75;;
48534;SDS011;34323;52.022;5.686;2023-05-02T04:00:04;7.72;;;2.03;;
48534;SDS011;34323;52.022;5.686;2023-05-02T04:02:30;4.80;;;1.55;;
48534;SDS011;34323;52.022;5.686;2023-05-02T04:04:56;3.70;;;1.60;;
48534;SDS011;34323;52.022;5.686;2023-05-02T04:07:21;7.70;;;1.95;;
48534;SDS011;34323;52.022;5.686;2023-05-02T04:09:49;7.57;;;1.85;;
48534;SDS011;34323;52.022;5.686;2023-05-02T04:12:15;5.78;;;1.77;;
48534;SDS011;34323;52.022;5.686;2023-05-02T04:14:41;9.48;;;1.50;;
48534;SDS011;34323;52.022;5.686;2023-05-02T04:17:06;7.50;;;2.10;;
48534;SDS011;34323;52.022;5.686;2023-05-02T04:19:32;8.82;;;1.83;;
48534;SDS011;34323;52.022;5.686;2023-05-02T04:21:58;8.38;;;2.22;;
48534;SDS011;34323;52.022;5.686;2023-05-02T04:24:24;5.85;;;2.08;;
48534;SDS011;34323;52.022;5.686;2023-05-02T04:26:50;7.55;;;2.55;;
48534;SDS011;34323;52.022;5.686;2023-05-02T04:29:15;6.95;;;1.60;;
48534;SDS011;34323;52.022;5.686;2023-05-02T04:31:41;7.40;;;1.92;;
48534;SDS011;34323;52.022;5.686;2023-05-02T04:34:06;10.27;;;2.10;;
48534;SDS011;34323;52.022;5.686;2023-05-02T04:36:32;7.80;;;2.22;;
48534;SDS011;34323;52.022;5.686;2023-05-02T04:38:58;6.68;;;1.75;;
48534;SDS011;34323;52.022;5.686;2023-05-02T04:41:24;9.05;;;1.70;;
48534;SDS011;34323;52.022;5.686;2023-05-02T04:43:49;5.85;;;1.65;;
48534;SDS011;34323;52.022;5.686;2023-05-02T04:46:16;4.18;;;1.70;;
48534;SDS011;34323;52.022;5.686;2023-05-02T04:48:44;6.22;;;1.77;;
48534;SDS011;34323;52.022;5.686;2023-05-02T04:51:09;6.00;;;1.52;;
48534;SDS011;34323;52.022;5.686;2023-05-02T04:53:36;12.07;;;2.00;;
48534;SDS011;34323;52.022;5.686;2023-05-02T04:56:01;8.68;;;2.55;;
48534;SDS011;34323;52.022;5.686;2023-05-02T04:58:27;14.43;;;1.98;;
48534;SDS011;34323;52.022;5.686;2023-05-02T05:00:52;6.28;;;1.55;;
48534;SDS011;34323;52.022;5.686;2023-05-02T05:03:18;5.32;;;1.50;;
48534;SDS011;34323;52.022;5.686;2023-05-02T05:05:44;7.78;;;1.73;;
48534;SDS011;34323;52.022;5.686;2023-05-02T05:08:10;3.17;;;1.70;;
48534;SDS011;34323;52.022;5.686;2023-05-02T05:10:36;7.88;;;1.67;;
48534;SDS011;34323;52.022;5.686;2023-05-02T05:13:01;14.32;;;2.67;;
48534;SDS011;34323;52.022;5.686;2023-05-02T05:15:28;8.75;;;2.90;;
48534;SDS011;34323;52.022;5.686;2023-05-02T05:17:53;8.60;;;1.88;;
48534;SDS011;34323;52.022;5.686;2023-05-02T05:20:19;6.15;;;1.98;;
48534;SDS011;34323;52.022;5.686;2023-05-02T05:22:45;7.55;;;2.08;;
48534;SDS011;34323;52.022;5.686;2023-05-02T05:25:10;7.20;;;1.73;;
48534;SDS011;34323;52.022;5.686;2023-05-02T05:27:36;10.52;;;1.70;;
48534;SDS011;34323;52.022;5.686;2023-05-02T05:30:02;4.68;;;1.75;;
48534;SDS011;34323;52.022;5.686;2023-05-02T05:32:31;10.15;;;1.95;;
48534;SDS011;34323;52.022;5.686;2023-05-02T05:34:57;9.80;;;1.95;;
48534;SDS011;34323;52.022;5.686;2023-05-02T05:37:23;9.40;;;2.67;;
48534;SDS011;34323;52.022;5.686;2023-05-02T05:39:48;7.60;;;2.20;;
48534;SDS011;34323;52.022;5.686;2023-05-02T05:42:14;9.23;;;1.60;;
48534;SDS011;34323;52.022;5.686;2023-05-02T05:44:39;10.07;;;2.45;;
48534;SDS011;34323;52.022;5.686;2023-05-02T05:47:05;8.48;;;2.35;;
48534;SDS011;34323;52.022;5.686;2023-05-02T05:49:31;10.25;;;2.25;;
48534;SDS011;34323;52.022;5.686;2023-05-02T05:51:56;13.88;;;3.13;;
48534;SDS011;34323;52.022;5.686;2023-05-02T05:54:22;10.05;;;2.28;;
48534;SDS011;34323;52.022;5.686;2023-05-02T05:56:48;8.63;;;2.45;;
48534;SDS011;34323;52.022;5.686;2023-05-02T05:59:13;11.35;;;2.85;;
48534;SDS011;34323;52.022;5.686;2023-05-02T06:01:39;14.50;;;2.63;;
48534;SDS011;34323;52.022;5.686;2023-05-02T06:04:05;12.10;;;3.33;;
48534;SDS011;34323;52.022;5.686;2023-05-02T06:06:31;6.95;;;3.08;;
48534;SDS011;34323;52.022;5.686;2023-05-02T06:08:57;8.40;;;3.22;;
48534;SDS011;34323;52.022;5.686;2023-05-02T06:11:23;15.40;;;2.92;;
48534;SDS011;34323;52.022;5.686;2023-05-02T06:13:50;16.05;;;3.22;;
48534;SDS011;34323;52.022;5.686;2023-05-02T06:16:16;11.60;;;2.85;;
48534;SDS011;34323;52.022;5.686;2023-05-02T06:18:42;15.07;;;2.65;;
48534;SDS011;34323;52.022;5.686;2023-05-02T06:21:08;13.27;;;2.67;;
48534;SDS011;34323;52.022;5.686;2023-05-02T06:23:33;9.77;;;2.75;;
48534;SDS011;34323;52.022;5.686;2023-05-02T06:25:59;10.18;;;2.90;;
48534;SDS011;34323;52.022;5.686;2023-05-02T06:28:25;11.10;;;3.20;;
48534;SDS011;34323;52.022;5.686;2023-05-02T06:30:58;10.25;;;3.00;;
48534;SDS011;34323;52.022;5.686;2023-05-02T06:33:25;11.02;;;3.42;;
48534;SDS011;34323;52.022;5.686;2023-05-02T06:35:51;13.63;;;2.67;;
48534;SDS011;34323;52.022;5.686;2023-05-02T06:38:17;15.68;;;2.70;;
48534;SDS011;34323;52.022;5.686;2023-05-02T06:40:43;7.63;;;2.38;;
48534;SDS011;34323;52.022;5.686;2023-05-02T06:43:09;12.80;;;2.63;;
48534;SDS011;34323;52.022;5.686;2023-05-02T06:45:35;17.05;;;2.90;;
48534;SDS011;34323;52.022;5.686;2023-05-02T06:48:01;15.35;;;2.70;;
48534;SDS011;34323;52.022;5.686;2023-05-02T06:50:27;14.82;;;2.65;;
48534;SDS011;34323;52.022;5.686;2023-05-02T06:52:53;4.82;;;1.73;;
48534;SDS011;34323;52.022;5.686;2023-05-02T06:55:19;13.30;;;2.22;;
48534;SDS011;34323;52.022;5.686;2023-05-02T06:57:45;18.80;;;2.53;;
48534;SDS011;34323;52.022;5.686;2023-05-02T07:00:11;4.38;;;1.70;;
48534;SDS011;34323;52.022;5.686;2023-05-02T07:02:37;13.70;;;2.08;;
48534;SDS011;34323;52.022;5.686;2023-05-02T07:05:02;10.85;;;2.03;;
48534;SDS011;34323;52.022;5.686;2023-05-02T07:07:28;5.65;;;1.80;;
48534;SDS011;34323;52.022;5.686;2023-05-02T07:09:54;9.40;;;2.42;;
48534;SDS011;34323;52.022;5.686;2023-05-02T07:12:20;10.38;;;1.80;;
48534;SDS011;34323;52.022;5.686;2023-05-02T07:14:45;10.45;;;1.80;;
48534;SDS011;34323;52.022;5.686;2023-05-02T07:17:11;9.93;;;1.58;;
48534;SDS011;34323;52.022;5.686;2023-05-02T07:19:36;9.05;;;2.70;;
48534;SDS011;34323;52.022;5.686;2023-05-02T07:22:02;8.32;;;2.88;;
48534;SDS011;34323;52.022;5.686;2023-05-02T07:24:28;4.28;;;1.42;;
48534;SDS011;34323;52.022;5.686;2023-05-02T07:26:53;9.65;;;1.60;;
48534;SDS011;34323;52.022;5.686;2023-05-02T07:29:19;9.45;;;2.17;;
48534;SDS011;34323;52.022;5.686;2023-05-02T07:31:45;13.02;;;2.15;;
48534;SDS011;34323;52.022;5.686;2023-05-02T07:34:10;7.30;;;2.13;;
48534;SDS011;34323;52.022;5.686;2023-05-02T07:36:36;13.63;;;2.42;;
48534;SDS011;34323;52.022;5.686;2023-05-02T07:39:02;8.90;;;2.35;;
48534;SDS011;34323;52.022;5.686;2023-05-02T07:41:27;10.95;;;1.83;;
48534;SDS011;34323;52.022;5.686;2023-05-02T07:43:53;10.63;;;2.13;;
48534;SDS011;34323;52.022;5.686;2023-05-02T07:46:18;14.55;;;2.33;;
48534;SDS011;34323;52.022;5.686;2023-05-02T07:48:44;15.43;;;2.40;;
48534;SDS011;34323;52.022;5.686;2023-05-02T07:51:09;11.07;;;2.33;;
48534;SDS011;34323;52.022;5.686;2023-05-02T07:53:36;19.08;;;2.38;;
48534;SDS011;34323;52.022;5.686;2023-05-02T07:56:04;10.40;;;2.40;;
48534;SDS011;34323;52.022;5.686;2023-05-02T07:58:31;8.15;;;2.35;;
48534;SDS011;34323;52.022;5.686;2023-05-02T08:00:57;9.60;;;1.98;;
48534;SDS011;34323;52.022;5.686;2023-05-02T08:03:22;12.40;;;2.47;;
48534;SDS011;34323;52.022;5.686;2023-05-02T08:05:48;14.45;;;2.40;;
48534;SDS011;34323;52.022;5.686;2023-05-02T08:08:13;11.77;;;2.00;;
48534;SDS011;34323;52.022;5.686;2023-05-02T08:10:39;8.13;;;1.95;;
48534;SDS011;34323;52.022;5.686;2023-05-02T08:13:04;7.25;;;1.58;;
48534;SDS011;34323;52.022;5.686;2023-05-02T08:15:30;6.53;;;1.63;;
48534;SDS011;34323;52.022;5.686;2023-05-02T08:17:55;6.68;;;1.77;;
48534;SDS011;34323;52.022;5.686;2023-05-02T08:20:21;9.98;;;1.90;;
48534;SDS011;34323;52.022;5.686;2023-05-02T08:22:47;5.85;;;1.65;;
48534;SDS011;34323;52.022;5.686;2023-05-02T08:25:12;5.68;;;1.77;;
48534;SDS011;34323;52.022;5.686;2023-05-02T08:27:38;7.32;;;1.70;;
48534;SDS011;34323;52.022;5.686;2023-05-02T08:30:04;4.15;;;1.50;;
48534;SDS011;34323;52.022;5.686;2023-05-02T08:32:31;7.20;;;1.50;;
48534;SDS011;34323;52.022;5.686;2023-05-02T08:34:56;7.65;;;1.67;;
48534;SDS011;34323;52.022;5.686;2023-05-02T08:37:22;7.13;;;1.65;;
48534;SDS011;34323;52.022;5.686;2023-05-02T08:39:48;5.97;;;1.92;;
48534;SDS011;34323;52.022;5.686;2023-05-02T08:42:13;12.02;;;1.55;;
48534;SDS011;34323;52.022;5.686;2023-05-02T08:44:39;3.83;;;1.35;;
48534;SDS011;34323;52.022;5.686;2023-05-02T08:47:05;5.72;;;1.90;;
48534;SDS011;34323;52.022;5.686;2023-05-02T08:49:34;11.63;;;1.50;;
48534;SDS011;34323;52.022;5.686;2023-05-02T08:52:01;11.30;;;1.65;;
48534;SDS011;34323;52.022;5.686;2023-05-02T08:54:30;6.55;;;1.70;;
48534;SDS011;34323;52.022;5.686;2023-05-02T08:56:57;3.25;;;1.23;;
48534;SDS011;34323;52.022;5.686;2023-05-02T08:59:23;5.82;;;1.67;;
48534;SDS011;34323;52.022;5.686;2023-05-02T09:01:51;6.32;;;1.88;;
48534;SDS011;34323;52.022;5.686;2023-05-02T09:04:22;4.65;;;1.42;;
48534;SDS011;34323;52.022;5.686;2023-05-02T09:06:52;3.42;;;1.35;;
48534;SDS011;34323;52.022;5.686;2023-05-02T09:09:18;3.55;;;1.65;;
48534;SDS011;34323;52.022;5.686;2023-05-02T09:11:45;6.30;;;1.65;;
48534;SDS011;34323;52.022;5.686;2023-05-02T09:14:14;7.95;;;1.75;;
48534;SDS011;34323;52.022;5.686;2023-05-02T09:16:40;4.07;;;1.85;;
48534;SDS011;34323;52.022;5.686;2023-05-02T09:19:06;8.77;;;1.67;;
48534;SDS011;34323;52.022;5.686;2023-05-02T09:21:35;4.95;;;1.70;;
48534;SDS011;34323;52.022;5.686;2023-05-02T09:24:14;9.02;;;2.03;;
48534;SDS011;34323;52.022;5.686;2023-05-02T09:26:43;5.45;;;2.83;;
48534;SDS011;34323;52.022;5.686;2023-05-02T09:29:27;4.88;;;1.55;;
48534;SDS011;34323;52.022;5.686;2023-05-02T09:32:00;5.38;;;2.08;;
48534;SDS011;34323;52.022;5.686;2023-05-02T09:34:27;4.75;;;1.60;;
48534;SDS011;34323;52.022;5.686;2023-05-02T09:36:53;5.45;;;1.75;;
48534;SDS011;34323;52.022;5.686;2023-05-02T09:39:20;4.13;;;1.10;;
48534;SDS011;34323;52.022;5.686;2023-05-02T09:41:47;3.83;;;1.30;;
48534;SDS011;34323;52.022;5.686;2023-05-02T09:44:14;5.53;;;1.63;;
48534;SDS011;34323;52.022;5.686;2023-05-02T09:46:43;4.90;;;1.50;;
48534;SDS011;34323;52.022;5.686;2023-05-02T09:49:10;3.67;;;1.10;;
48534;SDS011;34323;52.022;5.686;2023-05-02T09:51:35;11.88;;;1.85;;
48534;SDS011;34323;52.022;5.686;2023-05-02T09:54:01;18.27;;;1.77;;
48534;SDS011;34323;52.022;5.686;2023-05-02T09:56:27;4.30;;;1.23;;
48534;SDS011;34323;52.022;5.686;2023-05-02T09:59:12;7.22;;;1.42;;
48534;SDS011;34323;52.022;5.686;2023-05-02T10:01:39;2.30;;;1.17;;
48534;SDS011;34323;52.022;5.686;2023-05-02T10:04:06;4.85;;;1.33;;
48534;SDS011;34323;52.022;5.686;2023-05-02T10:06:44;6.72;;;1.60;;
48534;SDS011;34323;52.022;5.686;2023-05-02T10:09:10;7.95;;;1.80;;
48534;SDS011;34323;52.022;5.686;2023-05-02T10:11:38;2.75;;;1.45;;
48534;SDS011;34323;52.022;5.686;2023-05-02T10:14:09;5.97;;;1.73;;
48534;SDS011;34323;52.022;5.686;2023-05-02T10:16:37;9.23;;;1.85;;
48534;SDS011;34323;52.022;5.686;2023-05-02T10:19:16;6.70;;;1.75;;
48534;SDS011;34323;52.022;5.686;2023-05-02T10:21:47;7.40;;;1.52;;
48534;SDS011;34323;52.022;5.686;2023-05-02T10:24:14;7.93;;;1.80;;
48534;SDS011;34323;52.022;5.686;2023-05-02T10:26:41;7.70;;;1.90;;
48534;SDS011;34323;52.022;5.686;2023-05-02T10:29:07;8.32;;;2.13;;
48534;SDS011;34323;52.022;5.686;2023-05-02T10:31:34;9.75;;;1.67;;
48534;SDS011;34323;52.022;5.686;2023-05-02T10:34:01;3.90;;;1.77;;
48534;SDS011;34323;52.022;5.686;2023-05-02T10:36:28;7.30;;;1.65;;
48534;SDS011;34323;52.022;5.686;2023-05-02T10:38:57;5.68;;;2.00;;
48534;SDS011;34323;52.022;5.686;2023-05-02T10:41:24;4.00;;;1.52;;
48534;SDS011;34323;52.022;5.686;2023-05-02T10:43:51;6.95;;;1.67;;
48534;SDS011;34323;52.022;5.686;2023-05-02T10:46:36;7.07;;;1.20;;
48534;SDS011;34323;52.022;5.686;2023-05-02T10:49:07;9.88;;;2.70;;
48534;SDS011;34323;52.022;5.686;2023-05-02T10:51:37;6.32;;;1.77;;
48534;SDS011;34323;52.022;5.686;2023-05-02T10:54:23;2.60;;;1.30;;
48534;SDS011;34323;52.022;5.686;2023-05-02T10:59:28;8.00;;;1.90;;
48534;SDS011;34323;52.022;5.686;2023-05-02T11:01:55;6.55;;;1.88;;
48534;SDS011;34323;52.022;5.686;2023-05-02T11:04:21;11.00;;;2.28;;
48534;SDS011;34323;52.022;5.686;2023-05-02T11:11:51;7.03;;;1.52;;
48534;SDS011;34323;52.022;5.686;2023-05-02T11:19:25;6.15;;;2.03;;
48534;SDS011;34323;52.022;5.686;2023-05-02T11:21:52;6.18;;;2.05;;
48534;SDS011;34323;52.022;5.686;2023-05-02T11:30:04;6.68;;;1.88;;
48534;SDS011;34323;52.022;5.686;2023-05-02T11:35:18;7.15;;;2.38;;
48534;SDS011;34323;52.022;5.686;2023-05-02T11:37:59;8.93;;;1.80;;
48534;SDS011;34323;52.022;5.686;2023-05-02T11:40:27;7.68;;;1.85;;
48534;SDS011;34323;52.022;5.686;2023-05-02T11:42:53;7.03;;;2.20;;
48534;SDS011;34323;52.022;5.686;2023-05-02T11:45:20;7.88;;;2.22;;
48534;SDS011;34323;52.022;5.686;2023-05-02T11:47:47;4.90;;;2.22;;
48534;SDS011;34323;52.022;5.686;2023-05-02T11:50:15;10.45;;;2.60;;
48534;SDS011;34323;52.022;5.686;2023-05-02T11:52:42;6.20;;;2.10;;
48534;SDS011;34323;52.022;5.686;2023-05-02T11:55:09;7.20;;;2.10;;
48534;SDS011;34323;52.022;5.686;2023-05-02T11:57:37;5.75;;;1.90;;
48534;SDS011;34323;52.022;5.686;2023-05-02T12:00:03;7.10;;;2.03;;
48534;SDS011;34323;52.022;5.686;2023-05-02T12:02:36;8.20;;;2.15;;
48534;SDS011;34323;52.022;5.686;2023-05-02T12:05:10;3.92;;;1.73;;
48534;SDS011;34323;52.022;5.686;2023-05-02T12:07:43;7.05;;;2.05;;
48534;SDS011;34323;52.022;5.686;2023-05-02T12:12:36;5.63;;;1.95;;
48534;SDS011;34323;52.022;5.686;2023-05-02T12:15:03;7.28;;;2.10;;
48534;SDS011;34323;52.022;5.686;2023-05-02T12:17:30;8.98;;;2.42;;
48534;SDS011;34323;52.022;5.686;2023-05-02T12:19:58;8.75;;;2.10;;
48534;SDS011;34323;52.022;5.686;2023-05-02T12:22:24;7.78;;;2.67;;
48534;SDS011;34323;52.022;5.686;2023-05-02T12:24:50;7.57;;;2.30;;
48534;SDS011;34323;52.022;5.686;2023-05-02T12:27:19;8.32;;;2.33;;
48534;SDS011;34323;52.022;5.686;2023-05-02T12:29:45;7.28;;;2.15;;
48534;SDS011;34323;52.022;5.686;2023-05-02T12:32:12;7.85;;;2.40;;
48534;SDS011;34323;52.022;5.686;2023-05-02T12:34:39;7.18;;;2.30;;
48534;SDS011;34323;52.022;5.686;2023-05-02T12:37:05;11.80;;;2.78;;
48534;SDS011;34323;52.022;5.686;2023-05-02T12:39:38;6.18;;;2.17;;
48534;SDS011;34323;52.022;5.686;2023-05-02T12:42:08;9.13;;;2.45;;
48534;SDS011;34323;52.022;5.686;2023-05-02T12:44:38;6.00;;;2.47;;
48534;SDS011;34323;52.022;5.686;2023-05-02T12:47:04;12.38;;;3.25;;
48534;SDS011;34323;52.022;5.686;2023-05-02T12:49:31;11.15;;;3.50;;
48534;SDS011;34323;52.022;5.686;2023-05-02T12:51:56;6.72;;;2.45;;
48534;SDS011;34323;52.022;5.686;2023-05-02T12:54:22;4.90;;;1.98;;
48534;SDS011;34323;52.022;5.686;2023-05-02T12:56:50;13.35;;;2.88;;
48534;SDS011;34323;52.022;5.686;2023-05-02T12:59:31;14.35;;;3.35;;
48534;SDS011;34323;52.022;5.686;2023-05-02T13:01:57;8.02;;;2.58;;
48534;SDS011;34323;52.022;5.686;2023-05-02T13:04:33;8.35;;;2.40;;
48534;SDS011;34323;52.022;5.686;2023-05-02T13:07:00;8.23;;;2.20;;
48534;SDS011;34323;52.022;5.686;2023-05-02T13:09:25;12.18;;;2.67;;
48534;SDS011;34323;52.022;5.686;2023-05-02T13:11:51;10.85;;;2.58;;
48534;SDS011;34323;52.022;5.686;2023-05-02T13:14:18;12.88;;;1.92;;
48534;SDS011;34323;52.022;5.686;2023-05-02T13:16:43;6.72;;;2.22;;
48534;SDS011;34323;52.022;5.686;2023-05-02T13:19:09;7.15;;;2.40;;
48534;SDS011;34323;52.022;5.686;2023-05-02T13:21:34;12.30;;;2.42;;
48534;SDS011;34323;52.022;5.686;2023-05-02T13:24:00;7.72;;;2.55;;
48534;SDS011;34323;52.022;5.686;2023-05-02T13:26:28;5.57;;;2.25;;
48534;SDS011;34323;52.022;5.686;2023-05-02T13:28:53;7.45;;;2.45;;
48534;SDS011;34323;52.022;5.686;2023-05-02T13:31:20;7.32;;;1.98;;
48534;SDS011;34323;52.022;5.686;2023-05-02T13:33:45;7.18;;;2.45;;
48534;SDS011;34323;52.022;5.686;2023-05-02T13:36:11;11.30;;;3.33;;
48534;SDS011;34323;52.022;5.686;2023-05-02T13:38:36;9.57;;;3.33;;
48534;SDS011;34323;52.022;5.686;2023-05-02T13:41:02;13.73;;;2.20;;
48534;SDS011;34323;52.022;5.686;2023-05-02T13:43:28;5.78;;;2.20;;
48534;SDS011;34323;52.022;5.686;2023-05-02T13:45:53;7.22;;;2.33;;
48534;SDS011;34323;52.022;5.686;2023-05-02T13:48:19;8.55;;;2.03;;
48534;SDS011;34323;52.022;5.686;2023-05-02T13:50:45;4.53;;;2.00;;
48534;SDS011;34323;52.022;5.686;2023-05-02T13:53:10;9.93;;;2.60;;
48534;SDS011;34323;52.022;5.686;2023-05-02T13:55:36;5.97;;;2.20;;
48534;SDS011;34323;52.022;5.686;2023-05-02T13:58:01;5.97;;;2.08;;
48534;SDS011;34323;52.022;5.686;2023-05-02T14:00:27;10.25;;;3.83;;
48534;SDS011;34323;52.022;5.686;2023-05-02T14:02:53;5.07;;;2.00;;
48534;SDS011;34323;52.022;5.686;2023-05-02T14:05:19;8.65;;;2.58;;
48534;SDS011;34323;52.022;5.686;2023-05-02T14:07:44;10.60;;;2.83;;
48534;SDS011;34323;52.022;5.686;2023-05-02T14:10:10;5.80;;;2.08;;
48534;SDS011;34323;52.022;5.686;2023-05-02T14:12:36;4.78;;;2.05;;
48534;SDS011;34323;52.022;5.686;2023-05-02T14:15:02;8.23;;;1.90;;
48534;SDS011;34323;52.022;5.686;2023-05-02T14:17:27;3.20;;;1.60;;
48534;SDS011;34323;52.022;5.686;2023-05-02T14:19:53;12.77;;;2.30;;
48534;SDS011;34323;52.022;5.686;2023-05-02T14:22:18;8.25;;;2.47;;
48534;SDS011;34323;52.022;5.686;2023-05-02T14:24:44;5.70;;;2.20;;
48534;SDS011;34323;52.022;5.686;2023-05-02T14:27:09;11.07;;;2.00;;
48534;SDS011;34323;52.022;5.686;2023-05-02T14:29:37;5.38;;;2.42;;
48534;SDS011;34323;52.022;5.686;2023-05-02T14:32:03;8.13;;;1.83;;
48534;SDS011;34323;52.022;5.686;2023-05-02T14:34:29;7.57;;;2.05;;
48534;SDS011;34323;52.022;5.686;2023-05-02T14:36:55;7.72;;;2.17;;
48534;SDS011;34323;52.022;5.686;2023-05-02T14:39:20;7.50;;;1.88;;
48534;SDS011;34323;52.022;5.686;2023-05-02T14:41:46;6.55;;;2.00;;
48534;SDS011;34323;52.022;5.686;2023-05-02T14:44:12;6.32;;;2.08;;
48534;SDS011;34323;52.022;5.686;2023-05-02T14:46:37;7.07;;;2.40;;
48534;SDS011;34323;52.022;5.686;2023-05-02T14:49:03;9.05;;;2.13;;
48534;SDS011;34323;52.022;5.686;2023-05-02T14:51:29;12.40;;;2.30;;
48534;SDS011;34323;52.022;5.686;2023-05-02T14:53:55;14.45;;;2.35;;
48534;SDS011;34323;52.022;5.686;2023-05-02T14:56:21;6.32;;;2.13;;
48534;SDS011;34323;52.022;5.686;2023-05-02T14:58:47;5.03;;;2.08;;
48534;SDS011;34323;52.022;5.686;2023-05-02T15:01:19;6.10;;;2.70;;
48534;SDS011;34323;52.022;5.686;2023-05-02T15:03:45;9.88;;;2.28;;
48534;SDS011;34323;52.022;5.686;2023-05-02T15:06:11;8.65;;;2.58;;
48534;SDS011;34323;52.022;5.686;2023-05-02T15:08:38;7.30;;;2.53;;
48534;SDS011;34323;52.022;5.686;2023-05-02T15:11:04;5.38;;;2.13;;
48534;SDS011;34323;52.022;5.686;2023-05-02T15:13:30;6.22;;;2.00;;
48534;SDS011;34323;52.022;5.686;2023-05-02T15:15:56;5.65;;;1.90;;
48534;SDS011;34323;52.022;5.686;2023-05-02T15:18:22;5.72;;;2.08;;
48534;SDS011;34323;52.022;5.686;2023-05-02T15:20:47;11.27;;;2.28;;
48534;SDS011;34323;52.022;5.686;2023-05-02T15:23:13;10.07;;;1.90;;
48534;SDS011;34323;52.022;5.686;2023-05-02T15:25:38;8.27;;;2.30;;